sensor_id;sensor_type;location;lat;lon;timestamp;P1;durP1;ratioP1;P2;durP2;ratioP2
18405;SDS011;9329;48.720;9.588;2022-11-10T00:02:40;4.78;;;2.50;;
18405;SDS011;9329;48.720;9.588;2022-11-10T00:05:26;3.92;;;2.55;;
18405;SDS011;9329;48.720;9.588;2022-11-10T00:08:11;4.80;;;3.00;;
18405;SDS011;9329;48.720;9.588;2022-11-10T00:10:59;4.73;;;2.50;;
18405;SDS011;9329;48.720;9.588;2022-11-10T00:13:49;3.42;;;2.30;;
18405;SDS011;9329;48.720;9.588;2022-11-10T00:16:52;5.55;;;2.53;;
18405;SDS011;9329;48.720;9.588;2022-11-10T00:19:48;4.00;;;2.53;;
18405;SDS011;9329;48.720;9.588;2022-11-10T00:22:34;5.70;;;2.70;;
18405;SDS011;9329;48.720;9.588;2022-11-10T00:25:20;6.03;;;2.50;;
18405;SDS011;9329;48.720;9.588;2022-11-10T00:28:08;3.93;;;2.67;;
18405;SDS011;9329;48.720;9.588;2022-11-10T00:30:53;5.90;;;2.70;;
18405;SDS011;9329;48.720;9.588;2022-11-10T00:33:39;4.50;;;3.00;;
18405;SDS011;9329;48.720;9.588;2022-11-10T00:36:25;3.88;;;2.40;;
18405;SDS011;9329;48.720;9.588;2022-11-10T00:39:11;3.28;;;2.30;;
18405;SDS011;9329;48.720;9.588;2022-11-10T00:41:57;4.60;;;2.30;;
18405;SDS011;9329;48.720;9.588;2022-11-10T00:44:44;4.68;;;2.30;;
18405;SDS011;9329;48.720;9.588;2022-11-10T00:47:29;4.35;;;2.40;;
18405;SDS011;9329;48.720;9.588;2022-11-10T00:50:15;4.10;;;2.10;;
18405;SDS011;9329;48.720;9.588;2022-11-10T00:53:00;5.45;;;2.20;;
18405;SDS011;9329;48.720;9.588;2022-11-10T00:55:46;3.42;;;2.20;;
18405;SDS011;9329;48.720;9.588;2022-11-10T00:58:32;3.35;;;2.45;;
18405;SDS011;9329;48.720;9.588;2022-11-10T01:01:19;4.38;;;2.28;;
18405;SDS011;9329;48.720;9.588;2022-11-10T01:04:06;4.20;;;2.20;;
18405;SDS011;9329;48.720;9.588;2022-11-10T01:06:52;3.53;;;2.30;;
18405;SDS011;9329;48.720;9.588;2022-11-10T01:09:38;4.25;;;2.53;;
18405;SDS011;9329;48.720;9.588;2022-11-10T01:12:23;5.07;;;2.80;;
18405;SDS011;9329;48.720;9.588;2022-11-10T01:15:12;3.88;;;2.60;;
18405;SDS011;9329;48.720;9.588;2022-11-10T01:17:59;5.00;;;2.80;;
18405;SDS011;9329;48.720;9.588;2022-11-10T01:20:48;4.40;;;2.53;;
18405;SDS011;9329;48.720;9.588;2022-11-10T01:23:34;4.32;;;2.67;;
18405;SDS011;9329;48.720;9.588;2022-11-10T01:26:20;3.50;;;2.87;;
18405;SDS011;9329;48.720;9.588;2022-11-10T01:29:06;4.30;;;2.72;;
18405;SDS011;9329;48.720;9.588;2022-11-10T01:31:52;3.37;;;2.60;;
18405;SDS011;9329;48.720;9.588;2022-11-10T01:34:39;3.67;;;2.50;;
18405;SDS011;9329;48.720;9.588;2022-11-10T01:37:24;3.50;;;2.40;;
18405;SDS011;9329;48.720;9.588;2022-11-10T01:40:11;5.22;;;2.78;;
18405;SDS011;9329;48.720;9.588;2022-11-10T01:42:57;4.90;;;3.00;;
18405;SDS011;9329;48.720;9.588;2022-11-10T01:45:44;5.30;;;2.97;;
18405;SDS011;9329;48.720;9.588;2022-11-10T01:48:35;3.83;;;2.60;;
18405;SDS011;9329;48.720;9.588;2022-11-10T01:51:26;4.18;;;2.60;;
18405;SDS011;9329;48.720;9.588;2022-11-10T01:54:17;4.15;;;2.83;;
18405;SDS011;9329;48.720;9.588;2022-11-10T01:57:05;3.85;;;2.60;;
18405;SDS011;9329;48.720;9.588;2022-11-10T01:59:53;4.95;;;2.97;;
18405;SDS011;9329;48.720;9.588;2022-11-10T02:02:41;5.05;;;2.67;;
18405;SDS011;9329;48.720;9.588;2022-11-10T02:05:32;4.18;;;2.92;;
18405;SDS011;9329;48.720;9.588;2022-11-10T02:08:19;4.90;;;2.83;;
18405;SDS011;9329;48.720;9.588;2022-11-10T02:11:05;5.30;;;3.03;;
18405;SDS011;9329;48.720;9.588;2022-11-10T02:13:51;5.00;;;3.10;;
18405;SDS011;9329;48.720;9.588;2022-11-10T02:16:37;5.00;;;3.17;;
18405;SDS011;9329;48.720;9.588;2022-11-10T02:19:24;4.78;;;3.28;;
18405;SDS011;9329;48.720;9.588;2022-11-10T02:22:12;5.38;;;3.50;;
18405;SDS011;9329;48.720;9.588;2022-11-10T02:24:57;4.30;;;3.53;;
18405;SDS011;9329;48.720;9.588;2022-11-10T02:27:43;7.45;;;3.83;;
18405;SDS011;9329;48.720;9.588;2022-11-10T02:30:29;6.20;;;3.67;;
18405;SDS011;9329;48.720;9.588;2022-11-10T02:33:14;4.30;;;3.50;;
18405;SDS011;9329;48.720;9.588;2022-11-10T02:36:01;4.75;;;3.50;;
18405;SDS011;9329;48.720;9.588;2022-11-10T02:38:48;5.03;;;3.85;;
18405;SDS011;9329;48.720;9.588;2022-11-10T02:41:33;5.03;;;3.45;;
18405;SDS011;9329;48.720;9.588;2022-11-10T02:44:19;5.00;;;3.53;;
18405;SDS011;9329;48.720;9.588;2022-11-10T02:47:05;6.45;;;3.60;;
18405;SDS011;9329;48.720;9.588;2022-11-10T02:49:52;5.32;;;3.95;;
18405;SDS011;9329;48.720;9.588;2022-11-10T02:52:38;5.10;;;4.10;;
18405;SDS011;9329;48.720;9.588;2022-11-10T02:55:25;4.70;;;4.13;;
18405;SDS011;9329;48.720;9.588;2022-11-10T02:58:10;6.90;;;4.60;;
18405;SDS011;9329;48.720;9.588;2022-11-10T03:00:56;5.90;;;4.43;;
18405;SDS011;9329;48.720;9.588;2022-11-10T03:03:41;6.70;;;4.60;;
18405;SDS011;9329;48.720;9.588;2022-11-10T03:06:27;7.43;;;4.57;;
18405;SDS011;9329;48.720;9.588;2022-11-10T03:09:12;7.50;;;5.28;;
18405;SDS011;9329;48.720;9.588;2022-11-10T03:11:59;7.78;;;4.72;;
18405;SDS011;9329;48.720;9.588;2022-11-10T03:14:45;8.20;;;4.60;;
18405;SDS011;9329;48.720;9.588;2022-11-10T03:17:31;7.82;;;4.20;;
18405;SDS011;9329;48.720;9.588;2022-11-10T03:20:16;8.43;;;4.70;;
18405;SDS011;9329;48.720;9.588;2022-11-10T03:23:02;7.10;;;4.25;;
18405;SDS011;9329;48.720;9.588;2022-11-10T03:25:49;6.45;;;3.90;;
18405;SDS011;9329;48.720;9.588;2022-11-10T03:28:36;8.77;;;4.55;;
18405;SDS011;9329;48.720;9.588;2022-11-10T03:31:21;7.03;;;4.10;;
18405;SDS011;9329;48.720;9.588;2022-11-10T03:34:07;7.15;;;3.85;;
18405;SDS011;9329;48.720;9.588;2022-11-10T03:36:52;7.65;;;4.00;;
18405;SDS011;9329;48.720;9.588;2022-11-10T03:39:38;9.38;;;3.95;;
18405;SDS011;9329;48.720;9.588;2022-11-10T03:42:23;9.07;;;4.03;;
18405;SDS011;9329;48.720;9.588;2022-11-10T03:45:11;8.75;;;3.90;;
18405;SDS011;9329;48.720;9.588;2022-11-10T03:47:58;10.65;;;4.10;;
18405;SDS011;9329;48.720;9.588;2022-11-10T03:50:44;7.63;;;4.60;;
18405;SDS011;9329;48.720;9.588;2022-11-10T03:53:30;9.15;;;4.60;;
18405;SDS011;9329;48.720;9.588;2022-11-10T03:56:15;8.05;;;4.32;;
18405;SDS011;9329;48.720;9.588;2022-11-10T03:59:00;9.57;;;4.75;;
18405;SDS011;9329;48.720;9.588;2022-11-10T04:01:47;6.10;;;4.45;;
18405;SDS011;9329;48.720;9.588;2022-11-10T04:04:33;9.50;;;4.78;;
18405;SDS011;9329;48.720;9.588;2022-11-10T04:07:37;8.90;;;4.68;;
18405;SDS011;9329;48.720;9.588;2022-11-10T04:10:40;9.70;;;5.28;;
18405;SDS011;9329;48.720;9.588;2022-11-10T04:13:26;9.73;;;5.35;;
18405;SDS011;9329;48.720;9.588;2022-11-10T04:16:29;7.90;;;4.72;;
18405;SDS011;9329;48.720;9.588;2022-11-10T04:19:16;7.90;;;4.82;;
18405;SDS011;9329;48.720;9.588;2022-11-10T04:22:01;7.97;;;5.43;;
18405;SDS011;9329;48.720;9.588;2022-11-10T04:24:47;7.93;;;5.53;;
18405;SDS011;9329;48.720;9.588;2022-11-10T04:27:32;8.75;;;5.78;;
18405;SDS011;9329;48.720;9.588;2022-11-10T04:30:18;8.70;;;5.70;;
18405;SDS011;9329;48.720;9.588;2022-11-10T04:33:04;7.75;;;5.60;;
18405;SDS011;9329;48.720;9.588;2022-11-10T04:35:51;8.80;;;5.73;;
18405;SDS011;9329;48.720;9.588;2022-11-10T04:38:36;11.03;;;6.30;;
18405;SDS011;9329;48.720;9.588;2022-11-10T04:41:22;11.32;;;7.28;;
18405;SDS011;9329;48.720;9.588;2022-11-10T04:44:08;14.82;;;8.02;;
18405;SDS011;9329;48.720;9.588;2022-11-10T04:46:54;12.65;;;9.02;;
18405;SDS011;9329;48.720;9.588;2022-11-10T04:49:39;11.70;;;8.40;;
18405;SDS011;9329;48.720;9.588;2022-11-10T04:52:26;13.18;;;9.88;;
18405;SDS011;9329;48.720;9.588;2022-11-10T04:55:12;12.85;;;8.82;;
18405;SDS011;9329;48.720;9.588;2022-11-10T04:57:57;12.77;;;8.52;;
18405;SDS011;9329;48.720;9.588;2022-11-10T05:00:43;17.20;;;8.50;;
18405;SDS011;9329;48.720;9.588;2022-11-10T05:03:28;14.35;;;7.32;;
18405;SDS011;9329;48.720;9.588;2022-11-10T05:06:14;16.95;;;6.82;;
18405;SDS011;9329;48.720;9.588;2022-11-10T05:09:02;75.15;;;7.63;;
18405;SDS011;9329;48.720;9.588;2022-11-10T05:11:47;19.58;;;7.03;;
18405;SDS011;9329;48.720;9.588;2022-11-10T05:14:33;10.10;;;7.45;;
18405;SDS011;9329;48.720;9.588;2022-11-10T05:17:19;10.47;;;6.00;;
18405;SDS011;9329;48.720;9.588;2022-11-10T05:20:05;9.40;;;6.43;;
18405;SDS011;9329;48.720;9.588;2022-11-10T05:22:52;16.10;;;8.82;;
18405;SDS011;9329;48.720;9.588;2022-11-10T05:25:56;19.17;;;10.30;;
18405;SDS011;9329;48.720;9.588;2022-11-10T05:28:43;21.67;;;10.40;;
18405;SDS011;9329;48.720;9.588;2022-11-10T05:31:29;17.08;;;10.68;;
18405;SDS011;9329;48.720;9.588;2022-11-10T05:34:15;33.17;;;11.43;;
18405;SDS011;9329;48.720;9.588;2022-11-10T05:37:01;74.78;;;11.85;;
18405;SDS011;9329;48.720;9.588;2022-11-10T05:39:46;34.50;;;9.25;;
18405;SDS011;9329;48.720;9.588;2022-11-10T05:42:33;38.60;;;9.00;;
18405;SDS011;9329;48.720;9.588;2022-11-10T05:45:26;82.65;;;10.48;;
18405;SDS011;9329;48.720;9.588;2022-11-10T05:48:12;38.00;;;10.70;;
18405;SDS011;9329;48.720;9.588;2022-11-10T05:50:58;77.97;;;12.38;;
18405;SDS011;9329;48.720;9.588;2022-11-10T05:53:43;47.65;;;9.95;;
18405;SDS011;9329;48.720;9.588;2022-11-10T05:56:29;30.23;;;9.45;;
18405;SDS011;9329;48.720;9.588;2022-11-10T05:59:16;49.05;;;8.30;;
18405;SDS011;9329;48.720;9.588;2022-11-10T06:02:01;27.30;;;7.40;;
18405;SDS011;9329;48.720;9.588;2022-11-10T06:04:47;38.97;;;8.77;;
18405;SDS011;9329;48.720;9.588;2022-11-10T06:07:36;40.20;;;7.88;;
18405;SDS011;9329;48.720;9.588;2022-11-10T06:10:22;10.38;;;7.80;;
18405;SDS011;9329;48.720;9.588;2022-11-10T06:13:08;26.70;;;8.70;;
18405;SDS011;9329;48.720;9.588;2022-11-10T06:15:57;62.28;;;7.78;;
18405;SDS011;9329;48.720;9.588;2022-11-10T06:18:43;11.02;;;8.23;;
18405;SDS011;9329;48.720;9.588;2022-11-10T06:21:32;28.85;;;8.15;;
18405;SDS011;9329;48.720;9.588;2022-11-10T06:24:18;43.15;;;8.52;;
18405;SDS011;9329;48.720;9.588;2022-11-10T06:27:03;98.22;;;9.57;;
18405;SDS011;9329;48.720;9.588;2022-11-10T06:29:49;54.55;;;7.60;;
18405;SDS011;9329;48.720;9.588;2022-11-10T06:32:36;24.52;;;8.38;;
18405;SDS011;9329;48.720;9.588;2022-11-10T06:35:26;45.22;;;6.95;;
18405;SDS011;9329;48.720;9.588;2022-11-10T06:38:12;50.38;;;7.95;;
18405;SDS011;9329;48.720;9.588;2022-11-10T06:40:58;54.80;;;9.57;;
18405;SDS011;9329;48.720;9.588;2022-11-10T06:43:43;23.42;;;8.93;;
18405;SDS011;9329;48.720;9.588;2022-11-10T06:46:29;22.33;;;8.60;;
18405;SDS011;9329;48.720;9.588;2022-11-10T06:49:16;17.48;;;8.77;;
18405;SDS011;9329;48.720;9.588;2022-11-10T06:52:01;44.05;;;9.77;;
18405;SDS011;9329;48.720;9.588;2022-11-10T06:54:47;25.85;;;9.52;;
18405;SDS011;9329;48.720;9.588;2022-11-10T06:57:36;30.23;;;9.20;;
18405;SDS011;9329;48.720;9.588;2022-11-10T07:00:21;24.60;;;8.40;;
18405;SDS011;9329;48.720;9.588;2022-11-10T07:03:09;59.63;;;8.27;;
18405;SDS011;9329;48.720;9.588;2022-11-10T07:05:59;14.00;;;8.40;;
18405;SDS011;9329;48.720;9.588;2022-11-10T07:08:44;14.45;;;8.60;;
18405;SDS011;9329;48.720;9.588;2022-11-10T07:11:29;39.88;;;9.48;;
18405;SDS011;9329;48.720;9.588;2022-11-10T07:14:15;17.90;;;9.25;;
18405;SDS011;9329;48.720;9.588;2022-11-10T07:17:02;28.50;;;9.80;;
18405;SDS011;9329;48.720;9.588;2022-11-10T07:19:47;26.42;;;9.95;;
18405;SDS011;9329;48.720;9.588;2022-11-10T07:22:34;14.18;;;8.57;;
18405;SDS011;9329;48.720;9.588;2022-11-10T07:25:20;16.65;;;8.40;;
18405;SDS011;9329;48.720;9.588;2022-11-10T07:28:06;25.95;;;6.32;;
18405;SDS011;9329;48.720;9.588;2022-11-10T07:30:53;48.72;;;7.80;;
18405;SDS011;9329;48.720;9.588;2022-11-10T07:33:39;31.08;;;8.35;;
18405;SDS011;9329;48.720;9.588;2022-11-10T07:36:26;32.40;;;9.70;;
18405;SDS011;9329;48.720;9.588;2022-11-10T07:39:13;44.78;;;9.30;;
18405;SDS011;9329;48.720;9.588;2022-11-10T07:41:59;28.57;;;9.10;;
18405;SDS011;9329;48.720;9.588;2022-11-10T07:44:47;23.25;;;8.40;;
18405;SDS011;9329;48.720;9.588;2022-11-10T07:47:33;16.15;;;8.45;;
18405;SDS011;9329;48.720;9.588;2022-11-10T07:50:18;37.70;;;8.55;;
18405;SDS011;9329;48.720;9.588;2022-11-10T07:53:04;21.35;;;8.35;;
18405;SDS011;9329;48.720;9.588;2022-11-10T07:55:52;21.33;;;7.80;;
18405;SDS011;9329;48.720;9.588;2022-11-10T07:58:38;30.40;;;7.97;;
18405;SDS011;9329;48.720;9.588;2022-11-10T08:01:24;25.90;;;7.30;;
18405;SDS011;9329;48.720;9.588;2022-11-10T08:04:09;17.42;;;6.63;;
18405;SDS011;9329;48.720;9.588;2022-11-10T08:06:55;44.78;;;6.95;;
18405;SDS011;9329;48.720;9.588;2022-11-10T08:09:41;19.98;;;6.50;;
18405;SDS011;9329;48.720;9.588;2022-11-10T08:12:28;11.90;;;6.47;;
18405;SDS011;9329;48.720;9.588;2022-11-10T08:15:14;19.17;;;6.57;;
18405;SDS011;9329;48.720;9.588;2022-11-10T08:17:59;17.48;;;6.95;;
18405;SDS011;9329;48.720;9.588;2022-11-10T08:20:46;13.02;;;7.10;;
18405;SDS011;9329;48.720;9.588;2022-11-10T08:23:32;16.97;;;6.67;;
18405;SDS011;9329;48.720;9.588;2022-11-10T08:26:18;14.65;;;6.93;;
18405;SDS011;9329;48.720;9.588;2022-11-10T08:29:04;10.52;;;6.68;;
18405;SDS011;9329;48.720;9.588;2022-11-10T08:31:50;22.85;;;7.07;;
18405;SDS011;9329;48.720;9.588;2022-11-10T08:34:36;13.80;;;7.50;;
18405;SDS011;9329;48.720;9.588;2022-11-10T08:37:22;13.57;;;7.20;;
18405;SDS011;9329;48.720;9.588;2022-11-10T08:40:10;9.50;;;6.72;;
18405;SDS011;9329;48.720;9.588;2022-11-10T08:42:59;10.57;;;7.10;;
18405;SDS011;9329;48.720;9.588;2022-11-10T08:45:47;15.63;;;6.95;;
18405;SDS011;9329;48.720;9.588;2022-11-10T08:48:33;13.48;;;7.03;;
18405;SDS011;9329;48.720;9.588;2022-11-10T08:51:18;11.23;;;6.30;;
18405;SDS011;9329;48.720;9.588;2022-11-10T08:54:04;9.95;;;6.57;;
18405;SDS011;9329;48.720;9.588;2022-11-10T08:56:49;14.95;;;7.05;;
18405;SDS011;9329;48.720;9.588;2022-11-10T08:59:35;13.15;;;7.65;;
18405;SDS011;9329;48.720;9.588;2022-11-10T09:02:22;14.50;;;7.80;;
18405;SDS011;9329;48.720;9.588;2022-11-10T09:05:08;12.53;;;7.70;;
18405;SDS011;9329;48.720;9.588;2022-11-10T09:07:53;11.45;;;7.40;;
18405;SDS011;9329;48.720;9.588;2022-11-10T09:10:40;11.63;;;7.50;;
18405;SDS011;9329;48.720;9.588;2022-11-10T09:13:28;11.38;;;7.30;;
18405;SDS011;9329;48.720;9.588;2022-11-10T09:16:14;10.70;;;6.80;;
18405;SDS011;9329;48.720;9.588;2022-11-10T09:19:02;10.45;;;7.05;;
18405;SDS011;9329;48.720;9.588;2022-11-10T09:21:47;10.45;;;6.70;;
18405;SDS011;9329;48.720;9.588;2022-11-10T09:24:33;12.73;;;7.40;;
18405;SDS011;9329;48.720;9.588;2022-11-10T09:27:19;11.18;;;7.72;;
18405;SDS011;9329;48.720;9.588;2022-11-10T09:30:05;12.20;;;7.63;;
18405;SDS011;9329;48.720;9.588;2022-11-10T09:32:52;10.52;;;7.45;;
18405;SDS011;9329;48.720;9.588;2022-11-10T09:35:40;10.07;;;6.97;;
18405;SDS011;9329;48.720;9.588;2022-11-10T09:38:25;13.52;;;7.90;;
18405;SDS011;9329;48.720;9.588;2022-11-10T09:41:11;13.05;;;8.30;;
18405;SDS011;9329;48.720;9.588;2022-11-10T09:43:59;11.77;;;7.60;;
18405;SDS011;9329;48.720;9.588;2022-11-10T09:46:50;11.10;;;7.50;;
18405;SDS011;9329;48.720;9.588;2022-11-10T09:49:41;11.35;;;7.50;;
18405;SDS011;9329;48.720;9.588;2022-11-10T09:52:32;11.90;;;7.10;;
18405;SDS011;9329;48.720;9.588;2022-11-10T09:55:24;10.55;;;7.70;;
18405;SDS011;9329;48.720;9.588;2022-11-10T09:58:15;9.27;;;6.40;;
18405;SDS011;9329;48.720;9.588;2022-11-10T10:01:02;8.27;;;5.70;;
18405;SDS011;9329;48.720;9.588;2022-11-10T10:04:01;10.60;;;6.20;;
18405;SDS011;9329;48.720;9.588;2022-11-10T10:06:52;10.15;;;6.20;;
18405;SDS011;9329;48.720;9.588;2022-11-10T10:09:49;8.10;;;5.90;;
18405;SDS011;9329;48.720;9.588;2022-11-10T10:12:56;9.40;;;5.90;;
18405;SDS011;9329;48.720;9.588;2022-11-10T10:16:05;10.70;;;6.55;;
18405;SDS011;9329;48.720;9.588;2022-11-10T10:18:58;9.15;;;6.28;;
18405;SDS011;9329;48.720;9.588;2022-11-10T10:21:58;11.05;;;6.60;;
18405;SDS011;9329;48.720;9.588;2022-11-10T10:25:11;8.88;;;6.80;;
18405;SDS011;9329;48.720;9.588;2022-11-10T10:28:04;10.02;;;6.95;;
18405;SDS011;9329;48.720;9.588;2022-11-10T10:30:58;10.20;;;7.63;;
18405;SDS011;9329;48.720;9.588;2022-11-10T10:33:51;12.52;;;7.82;;
18405;SDS011;9329;48.720;9.588;2022-11-10T10:36:38;12.15;;;7.15;;
18405;SDS011;9329;48.720;9.588;2022-11-10T10:39:24;11.27;;;7.38;;
18405;SDS011;9329;48.720;9.588;2022-11-10T10:42:15;8.63;;;6.40;;
18405;SDS011;9329;48.720;9.588;2022-11-10T10:45:14;10.80;;;6.60;;
18405;SDS011;9329;48.720;9.588;2022-11-10T10:48:02;11.60;;;6.10;;
18405;SDS011;9329;48.720;9.588;2022-11-10T10:51:04;7.22;;;4.20;;
18405;SDS011;9329;48.720;9.588;2022-11-10T10:53:50;11.00;;;5.22;;
18405;SDS011;9329;48.720;9.588;2022-11-10T10:56:36;9.68;;;6.45;;
18405;SDS011;9329;48.720;9.588;2022-11-10T10:59:23;10.43;;;7.10;;
18405;SDS011;9329;48.720;9.588;2022-11-10T11:02:19;13.48;;;6.80;;
18405;SDS011;9329;48.720;9.588;2022-11-10T11:05:10;9.07;;;4.80;;
18405;SDS011;9329;48.720;9.588;2022-11-10T11:07:59;8.40;;;3.40;;
18405;SDS011;9329;48.720;9.588;2022-11-10T11:10:45;5.72;;;3.00;;
18405;SDS011;9329;48.720;9.588;2022-11-10T11:13:30;6.43;;;3.47;;
18405;SDS011;9329;48.720;9.588;2022-11-10T11:16:17;7.72;;;3.67;;
18405;SDS011;9329;48.720;9.588;2022-11-10T11:19:03;6.05;;;2.80;;
18405;SDS011;9329;48.720;9.588;2022-11-10T11:21:52;6.32;;;2.05;;
18405;SDS011;9329;48.720;9.588;2022-11-10T11:24:56;5.32;;;1.35;;
18405;SDS011;9329;48.720;9.588;2022-11-10T11:27:53;5.88;;;1.40;;
18405;SDS011;9329;48.720;9.588;2022-11-10T11:30:52;5.57;;;2.53;;
18405;SDS011;9329;48.720;9.588;2022-11-10T11:33:48;8.55;;;2.53;;
18405;SDS011;9329;48.720;9.588;2022-11-10T11:36:44;5.70;;;1.60;;
18405;SDS011;9329;48.720;9.588;2022-11-10T11:39:40;4.43;;;1.35;;
18405;SDS011;9329;48.720;9.588;2022-11-10T11:42:41;3.95;;;1.50;;
18405;SDS011;9329;48.720;9.588;2022-11-10T11:45:38;4.95;;;1.48;;
18405;SDS011;9329;48.720;9.588;2022-11-10T11:48:39;5.18;;;1.27;;
18405;SDS011;9329;48.720;9.588;2022-11-10T11:51:33;6.10;;;1.40;;
18405;SDS011;9329;48.720;9.588;2022-11-10T11:54:27;6.10;;;1.38;;
18405;SDS011;9329;48.720;9.588;2022-11-10T11:57:27;5.15;;;1.30;;
18405;SDS011;9329;48.720;9.588;2022-11-10T12:00:19;4.68;;;1.50;;
18405;SDS011;9329;48.720;9.588;2022-11-10T12:03:10;5.30;;;1.40;;
18405;SDS011;9329;48.720;9.588;2022-11-10T12:06:18;5.55;;;1.30;;
18405;SDS011;9329;48.720;9.588;2022-11-10T12:09:24;3.67;;;1.00;;
18405;SDS011;9329;48.720;9.588;2022-11-10T12:12:22;4.40;;;1.17;;
18405;SDS011;9329;48.720;9.588;2022-11-10T12:15:20;4.70;;;1.15;;
18405;SDS011;9329;48.720;9.588;2022-11-10T12:18:16;4.85;;;1.20;;
18405;SDS011;9329;48.720;9.588;2022-11-10T12:21:16;3.38;;;1.10;;
18405;SDS011;9329;48.720;9.588;2022-11-10T12:24:18;3.92;;;1.00;;
18405;SDS011;9329;48.720;9.588;2022-11-10T12:27:20;3.72;;;1.10;;
18405;SDS011;9329;48.720;9.588;2022-11-10T12:30:11;5.93;;;1.30;;
18405;SDS011;9329;48.720;9.588;2022-11-10T12:32:58;4.17;;;1.10;;
18405;SDS011;9329;48.720;9.588;2022-11-10T12:35:48;5.15;;;1.20;;
18405;SDS011;9329;48.720;9.588;2022-11-10T12:38:42;3.67;;;1.10;;
18405;SDS011;9329;48.720;9.588;2022-11-10T12:41:35;3.72;;;1.20;;
18405;SDS011;9329;48.720;9.588;2022-11-10T12:44:25;8.10;;;1.50;;
18405;SDS011;9329;48.720;9.588;2022-11-10T12:47:15;4.90;;;1.20;;
18405;SDS011;9329;48.720;9.588;2022-11-10T12:50:18;3.63;;;1.10;;
18405;SDS011;9329;48.720;9.588;2022-11-10T12:53:12;3.20;;;0.90;;
18405;SDS011;9329;48.720;9.588;2022-11-10T12:56:04;4.07;;;1.20;;
18405;SDS011;9329;48.720;9.588;2022-11-10T13:02:14;4.43;;;1.08;;
18405;SDS011;9329;48.720;9.588;2022-11-10T13:05:16;5.22;;;1.05;;
18405;SDS011;9329;48.720;9.588;2022-11-10T13:08:12;3.15;;;1.00;;
18405;SDS011;9329;48.720;9.588;2022-11-10T13:11:20;3.17;;;0.90;;
18405;SDS011;9329;48.720;9.588;2022-11-10T13:14:19;3.70;;;0.80;;
18405;SDS011;9329;48.720;9.588;2022-11-10T13:17:07;4.40;;;1.02;;
18405;SDS011;9329;48.720;9.588;2022-11-10T13:19:54;6.70;;;1.33;;
18405;SDS011;9329;48.720;9.588;2022-11-10T13:22:40;3.75;;;0.88;;
18405;SDS011;9329;48.720;9.588;2022-11-10T13:28:58;5.05;;;0.95;;
18405;SDS011;9329;48.720;9.588;2022-11-10T13:31:50;3.85;;;1.08;;
18405;SDS011;9329;48.720;9.588;2022-11-10T13:34:38;4.55;;;1.20;;
18405;SDS011;9329;48.720;9.588;2022-11-10T13:37:43;4.63;;;1.10;;
18405;SDS011;9329;48.720;9.588;2022-11-10T13:40:36;2.47;;;1.00;;
18405;SDS011;9329;48.720;9.588;2022-11-10T13:43:24;5.60;;;1.05;;
18405;SDS011;9329;48.720;9.588;2022-11-10T13:46:11;4.60;;;0.85;;
18405;SDS011;9329;48.720;9.588;2022-11-10T13:52:19;4.07;;;1.10;;
18405;SDS011;9329;48.720;9.588;2022-11-10T13:55:34;3.72;;;1.00;;
18405;SDS011;9329;48.720;9.588;2022-11-10T13:58:43;4.38;;;1.10;;
18405;SDS011;9329;48.720;9.588;2022-11-10T14:01:29;2.05;;;0.80;;
18405;SDS011;9329;48.720;9.588;2022-11-10T14:07:26;3.42;;;1.10;;
18405;SDS011;9329;48.720;9.588;2022-11-10T14:10:16;3.85;;;1.00;;
18405;SDS011;9329;48.720;9.588;2022-11-10T14:13:10;3.73;;;1.00;;
18405;SDS011;9329;48.720;9.588;2022-11-10T14:15:59;2.90;;;0.80;;
18405;SDS011;9329;48.720;9.588;2022-11-10T14:18:47;3.58;;;0.98;;
18405;SDS011;9329;48.720;9.588;2022-11-10T14:21:38;3.78;;;0.98;;
18405;SDS011;9329;48.720;9.588;2022-11-10T14:24:32;3.60;;;0.90;;
18405;SDS011;9329;48.720;9.588;2022-11-10T14:27:22;3.50;;;0.88;;
18405;SDS011;9329;48.720;9.588;2022-11-10T14:30:21;3.00;;;0.80;;
18405;SDS011;9329;48.720;9.588;2022-11-10T14:33:08;3.20;;;0.90;;
18405;SDS011;9329;48.720;9.588;2022-11-10T14:35:57;3.40;;;1.00;;
18405;SDS011;9329;48.720;9.588;2022-11-10T14:38:46;4.32;;;1.02;;
18405;SDS011;9329;48.720;9.588;2022-11-10T14:41:33;4.70;;;1.10;;
18405;SDS011;9329;48.720;9.588;2022-11-10T14:44:20;2.83;;;1.00;;
18405;SDS011;9329;48.720;9.588;2022-11-10T14:47:12;2.85;;;0.90;;
18405;SDS011;9329;48.720;9.588;2022-11-10T14:53:11;4.50;;;1.00;;
18405;SDS011;9329;48.720;9.588;2022-11-10T14:56:05;3.65;;;1.08;;
18405;SDS011;9329;48.720;9.588;2022-11-10T14:58:57;2.90;;;0.88;;
18405;SDS011;9329;48.720;9.588;2022-11-10T15:01:48;3.83;;;0.90;;
18405;SDS011;9329;48.720;9.588;2022-11-10T15:04:37;3.35;;;0.80;;
18405;SDS011;9329;48.720;9.588;2022-11-10T15:07:23;3.75;;;1.10;;
18405;SDS011;9329;48.720;9.588;2022-11-10T15:10:12;11.55;;;1.40;;
18405;SDS011;9329;48.720;9.588;2022-11-10T15:13:03;5.43;;;1.30;;
18405;SDS011;9329;48.720;9.588;2022-11-10T15:15:50;2.67;;;0.90;;
18405;SDS011;9329;48.720;9.588;2022-11-10T15:18:36;3.80;;;1.10;;
18405;SDS011;9329;48.720;9.588;2022-11-10T15:21:25;5.07;;;1.17;;
18405;SDS011;9329;48.720;9.588;2022-11-10T15:24:13;6.38;;;1.20;;
18405;SDS011;9329;48.720;9.588;2022-11-10T15:26:59;5.53;;;1.50;;
18405;SDS011;9329;48.720;9.588;2022-11-10T15:29:46;4.57;;;1.40;;
18405;SDS011;9329;48.720;9.588;2022-11-10T15:32:33;5.30;;;1.25;;
18405;SDS011;9329;48.720;9.588;2022-11-10T15:35:25;4.57;;;1.40;;
18405;SDS011;9329;48.720;9.588;2022-11-10T15:38:30;2.83;;;1.30;;
18405;SDS011;9329;48.720;9.588;2022-11-10T15:41:21;4.47;;;1.38;;
18405;SDS011;9329;48.720;9.588;2022-11-10T15:44:12;4.30;;;2.05;;
18405;SDS011;9329;48.720;9.588;2022-11-10T15:47:03;4.50;;;1.63;;
18405;SDS011;9329;48.720;9.588;2022-11-10T15:49:49;3.60;;;1.10;;
18405;SDS011;9329;48.720;9.588;2022-11-10T15:52:35;4.57;;;1.40;;
18405;SDS011;9329;48.720;9.588;2022-11-10T15:55:23;2.67;;;1.00;;
18405;SDS011;9329;48.720;9.588;2022-11-10T15:58:10;3.77;;;1.20;;
18405;SDS011;9329;48.720;9.588;2022-11-10T16:00:57;9.73;;;5.90;;
18405;SDS011;9329;48.720;9.588;2022-11-10T16:03:46;4.80;;;2.80;;
18405;SDS011;9329;48.720;9.588;2022-11-10T16:06:32;6.88;;;2.40;;
18405;SDS011;9329;48.720;9.588;2022-11-10T16:09:18;5.15;;;2.08;;
18405;SDS011;9329;48.720;9.588;2022-11-10T16:12:04;8.00;;;2.10;;
18405;SDS011;9329;48.720;9.588;2022-11-10T16:14:50;5.07;;;2.10;;
18405;SDS011;9329;48.720;9.588;2022-11-10T16:17:37;5.50;;;1.92;;
18405;SDS011;9329;48.720;9.588;2022-11-10T16:20:25;5.30;;;2.80;;
18405;SDS011;9329;48.720;9.588;2022-11-10T16:23:10;6.87;;;3.20;;
18405;SDS011;9329;48.720;9.588;2022-11-10T16:25:56;6.78;;;2.75;;
18405;SDS011;9329;48.720;9.588;2022-11-10T16:28:42;6.43;;;2.50;;
18405;SDS011;9329;48.720;9.588;2022-11-10T16:31:30;7.07;;;3.00;;
18405;SDS011;9329;48.720;9.588;2022-11-10T16:34:17;9.15;;;5.10;;
18405;SDS011;9329;48.720;9.588;2022-11-10T16:37:04;10.68;;;5.95;;
18405;SDS011;9329;48.720;9.588;2022-11-10T16:39:51;13.23;;;5.60;;
18405;SDS011;9329;48.720;9.588;2022-11-10T16:42:37;19.30;;;11.68;;
18405;SDS011;9329;48.720;9.588;2022-11-10T16:45:23;11.82;;;6.53;;
18405;SDS011;9329;48.720;9.588;2022-11-10T16:48:14;11.55;;;6.25;;
18405;SDS011;9329;48.720;9.588;2022-11-10T16:51:03;12.73;;;6.20;;
18405;SDS011;9329;48.720;9.588;2022-11-10T16:53:50;12.13;;;6.40;;
18405;SDS011;9329;48.720;9.588;2022-11-10T16:56:37;10.53;;;5.17;;
18405;SDS011;9329;48.720;9.588;2022-11-10T16:59:23;10.67;;;5.37;;
18405;SDS011;9329;48.720;9.588;2022-11-10T17:02:13;7.93;;;5.07;;
18405;SDS011;9329;48.720;9.588;2022-11-10T17:05:10;8.53;;;5.13;;
18405;SDS011;9329;48.720;9.588;2022-11-10T17:07:57;11.75;;;5.43;;
18405;SDS011;9329;48.720;9.588;2022-11-10T17:10:45;11.23;;;5.50;;
18405;SDS011;9329;48.720;9.588;2022-11-10T17:13:31;10.10;;;5.20;;
18405;SDS011;9329;48.720;9.588;2022-11-10T17:16:24;8.15;;;5.28;;
18405;SDS011;9329;48.720;9.588;2022-11-10T17:19:14;8.88;;;4.82;;
18405;SDS011;9329;48.720;9.588;2022-11-10T17:22:02;8.00;;;4.07;;
18405;SDS011;9329;48.720;9.588;2022-11-10T17:24:48;9.85;;;4.50;;